PAKF

Details ICAO PAKF (KFP)
Name False Pass
Region USA (Alaska)
Timezone America/Nome (UTC-8.0)
Plans Departing 6
Arriving 4
Stats Elevation 20 ft / 6 m (AMSL)
Location 54.847446° -163.410322°
Runways 1
Magnetic Variation 10.367° E
Sunrise 2018-05-23 14:35:02 UTC / 2018-05-23 06:35:02 Local
Sunset 2018-05-24 07:08:41 UTC / 2018-05-23 23:08:41 Local
Advertisement - Login to hide

Runways

ID Width Length Bearing (true) Bearing (mag) Surface Threshold Offset Overrun Length
13 80 ft / 24 m 2,102 ft / 641 m 146.00° 135.63° Gravel 0 ft / 0 m 0 ft / 0 m
31 80 ft / 24 m 2,102 ft / 641 m 326.00° 315.63° Gravel 0 ft / 0 m 0 ft / 0 m

Map

Weather


0- 5 10 15 20 25 30 35+ Temperature / ° C

Clouds and Precipitation
Forecast for 2018-05-23 12:00 UTC. Updated 5 minutes ago

Ground ~20,000 ft ~40,000 ft Winds

METAR

PAKF 231056Z AUTO 18012G16KT 150V210 10SM -RA OVC008 06/04 A2958 RMK AO2 SLP016 P0003 T00560044

TAF

Not found
Warning: Do not use this data for real-world aviation or navigation. No guarantee of current accuracy is given.